createdAt,value
2023-03-29T00:00:22.035Z,76.40
2023-03-29T00:03:24.728Z,76.55
2023-03-29T00:06:31.153Z,76.15
2023-03-29T00:09:33.809Z,76.10
2023-03-29T00:12:37.730Z,76.15
2023-03-29T00:15:40.356Z,76.02
2023-03-29T00:18:42.887Z,75.36
2023-03-29T00:21:45.486Z,75.41
2023-03-29T00:24:49.163Z,75.64
2023-03-29T00:27:53.146Z,75.37
2023-03-29T00:31:04.397Z,75.27
2023-03-29T00:34:07.219Z,75.28
2023-03-29T00:37:09.984Z,75.06
2023-03-29T00:40:13.293Z,74.44
2023-03-29T00:43:17.384Z,74.11
2023-03-29T00:46:20.022Z,74.49
2023-03-29T00:49:22.631Z,74.02
2023-03-29T00:52:30.040Z,73.87
2023-03-29T00:55:34.929Z,73.52
2023-03-29T00:58:40.347Z,73.23
2023-03-29T01:01:46.466Z,73.29
2023-03-29T01:04:50.746Z,73.06
2023-03-29T01:07:57.947Z,73.55
2023-03-29T01:11:01.817Z,72.90
2023-03-29T01:14:06.529Z,73.42
2023-03-29T01:17:09.147Z,72.94
2023-03-29T01:20:14.217Z,72.83
2023-03-29T01:23:31.442Z,73.03
2023-03-29T01:26:40.425Z,73.21
2023-03-29T01:29:45.513Z,73.04
2023-03-29T01:32:50.481Z,73.18
2023-03-29T01:35:57.437Z,73.67
2023-03-29T01:39:00.573Z,73.86
2023-03-29T01:42:09.732Z,74.03
2023-03-29T01:45:18.494Z,74.23
2023-03-29T01:48:23.932Z,73.69
2023-03-29T01:51:27.297Z,74.22
2023-03-29T01:54:31.743Z,74.92
2023-03-29T01:57:34.312Z,74.86
2023-03-29T02:00:38.555Z,74.40
2023-03-29T02:03:43.184Z,74.79
2023-03-29T02:06:45.759Z,75.02
2023-03-29T02:09:48.875Z,75.10
2023-03-29T02:12:51.956Z,75.30
2023-03-29T02:15:56.574Z,75.27
2023-03-29T02:18:59.441Z,75.31
2023-03-29T02:22:03.877Z,75.06
2023-03-29T02:25:08.464Z,75.46
2023-03-29T02:28:11.028Z,75.33
2023-03-29T02:31:17.942Z,75.70
2023-03-29T02:34:22.293Z,75.77
2023-03-29T02:37:26.565Z,75.49
2023-03-29T02:40:29.116Z,75.84
2023-03-29T02:43:31.699Z,75.73
2023-03-29T02:46:37.761Z,75.48
2023-03-29T02:49:40.514Z,76.11
2023-03-29T02:52:46.119Z,75.56
2023-03-29T02:55:48.877Z,75.22
2023-03-29T02:58:51.443Z,75.22
2023-03-29T03:01:55.411Z,75.57
2023-03-29T03:04:59.125Z,75.47
2023-03-29T03:08:02.594Z,75.42
2023-03-29T03:11:05.376Z,75.34
2023-03-29T03:14:07.912Z,75.42
2023-03-29T03:17:11.829Z,75.32
2023-03-29T03:20:14.687Z,75.82
2023-03-29T03:23:17.638Z,75.28
2023-03-29T03:26:20.207Z,75.46
2023-03-29T03:29:23.208Z,75.67
2023-03-29T03:32:27.123Z,75.64
2023-03-29T03:35:29.668Z,75.52
2023-03-29T03:38:32.309Z,75.56
2023-03-29T03:41:34.937Z,75.56
2023-03-29T03:44:37.905Z,75.42
2023-03-29T03:47:42.197Z,75.45
2023-03-29T03:50:49.561Z,75.07
2023-03-29T03:53:52.089Z,75.36
2023-03-29T03:56:55.114Z,75.45
2023-03-29T03:59:58.901Z,75.42
2023-03-29T04:03:06.050Z,75.60
2023-03-29T04:06:09.640Z,75.86
2023-03-29T04:09:12.793Z,75.82
2023-03-29T04:12:15.720Z,76.06
2023-03-29T04:15:20.156Z,76.50
2023-03-29T04:18:24.441Z,75.80
2023-03-29T04:21:27.143Z,76.21
2023-03-29T04:24:29.675Z,76.39
2023-03-29T04:27:32.255Z,76.41
2023-03-29T04:30:34.846Z,76.62
2023-03-29T04:33:38.860Z,76.36
2023-03-29T04:36:41.426Z,76.68
2023-03-29T04:39:44.725Z,76.94
2023-03-29T04:42:47.306Z,76.99
2023-03-29T04:45:50.064Z,77.02
2023-03-29T04:48:54.027Z,76.82
2023-03-29T04:51:57.010Z,77.15
2023-03-29T04:54:59.543Z,76.93
2023-03-29T04:58:02.604Z,76.98
2023-03-29T05:01:05.721Z,77.34
2023-03-29T05:04:12.561Z,77.18
2023-03-29T05:07:15.605Z,77.42
2023-03-29T05:10:18.376Z,77.53
2023-03-29T05:13:20.928Z,77.68
2023-03-29T05:16:24.454Z,77.54
2023-03-29T05:19:28.419Z,77.68
2023-03-29T05:22:31.417Z,77.66
2023-03-29T05:25:34.306Z,77.66
2023-03-29T05:28:36.873Z,77.69
2023-03-29T05:31:39.527Z,77.88
2023-03-29T05:34:43.558Z,78.34
2023-03-29T05:37:47.120Z,78.00
2023-03-29T05:40:49.877Z,78.40
2023-03-29T05:43:52.490Z,78.36
2023-03-29T05:46:55.073Z,78.60
2023-03-29T05:49:59.232Z,78.73
2023-03-29T05:53:01.750Z,78.49
2023-03-29T05:56:04.956Z,78.77
2023-03-29T05:59:08.324Z,78.85
2023-03-29T06:02:11.576Z,78.77
2023-03-29T06:05:16.014Z,79.15
2023-03-29T06:08:18.618Z,79.22
2023-03-29T06:11:22.227Z,79.26
2023-03-29T06:14:24.899Z,79.55
2023-03-29T06:17:27.927Z,79.54
2023-03-29T06:20:31.842Z,79.86
2023-03-29T06:23:34.701Z,79.89
2023-03-29T06:26:37.458Z,80.27
2023-03-29T06:29:40.227Z,80.18
2023-03-29T06:32:42.924Z,80.25
2023-03-29T06:35:47.497Z,80.48
2023-03-29T06:38:50.052Z,80.38
2023-03-29T06:41:52.610Z,80.74
2023-03-29T06:44:55.140Z,80.79
2023-03-29T06:47:57.726Z,81.02
2023-03-29T06:51:01.790Z,81.11
2023-03-29T06:54:05.345Z,81.10
2023-03-29T06:57:07.956Z,81.24
2023-03-29T07:00:18.205Z,81.23
2023-03-29T07:03:24.551Z,81.58
2023-03-29T07:06:28.451Z,81.67
2023-03-29T07:09:31.371Z,81.92
2023-03-29T07:12:34.193Z,81.87
2023-03-29T07:15:37.039Z,81.95
2023-03-29T07:18:41.257Z,82.22
2023-03-29T07:21:45.182Z,82.57
2023-03-29T07:24:49.276Z,82.75
2023-03-29T07:27:52.915Z,82.50
2023-03-29T07:31:03.145Z,82.46
2023-03-29T07:34:10.590Z,82.99
2023-03-29T07:37:14.502Z,83.27
2023-03-29T07:40:19.528Z,83.41
2023-03-29T07:43:22.269Z,83.40
2023-03-29T07:46:24.871Z,83.89
2023-03-29T07:49:27.498Z,83.73
2023-03-29T07:52:31.501Z,84.04
2023-03-29T07:55:34.036Z,83.67
2023-03-29T07:58:37.641Z,84.19
2023-03-29T08:01:41.112Z,84.31
2023-03-29T08:04:43.778Z,84.38
2023-03-29T08:07:47.816Z,84.02
2023-03-29T08:10:50.359Z,84.50
2023-03-29T08:13:52.999Z,84.28
2023-03-29T08:16:55.688Z,84.82
2023-03-29T08:19:58.297Z,84.33
2023-03-29T08:23:02.175Z,84.90
2023-03-29T08:26:04.904Z,85.22
2023-03-29T08:29:08.288Z,84.59
2023-03-29T08:32:11.436Z,84.71
2023-03-29T08:35:14.005Z,85.52
2023-03-29T08:38:17.892Z,85.65
2023-03-29T08:41:27.773Z,85.34
2023-03-29T08:44:43.841Z,85.16
2023-03-29T08:47:49.931Z,85.46
2023-03-29T08:50:53.729Z,84.82
2023-03-29T08:53:58.826Z,84.95
2023-03-29T08:57:02.967Z,85.27
2023-03-29T09:00:07.222Z,85.29
2023-03-29T09:03:11.336Z,85.30
2023-03-29T09:06:14.096Z,85.86
2023-03-29T09:09:19.718Z,85.90
2023-03-29T09:12:27.313Z,85.58
2023-03-29T09:15:31.019Z,85.62
2023-03-29T09:18:37.761Z,85.40
2023-03-29T09:21:43.251Z,85.23
2023-03-29T09:24:54.081Z,85.10
2023-03-29T09:27:59.181Z,85.51
2023-03-29T09:31:05.068Z,85.16
2023-03-29T09:34:10.665Z,85.21
2023-03-29T09:37:15.077Z,85.74
2023-03-29T09:40:20.914Z,84.86
2023-03-29T09:43:29.691Z,85.23
2023-03-29T09:46:37.348Z,85.94
2023-03-29T09:49:41.652Z,85.79
2023-03-29T09:52:44.255Z,85.46
2023-03-29T09:55:50.385Z,85.31
2023-03-29T09:58:53.109Z,85.42
2023-03-29T10:01:55.739Z,85.94
2023-03-29T10:05:00.558Z,85.67
2023-03-29T10:08:19.889Z,86.12
2023-03-29T10:11:26.917Z,86.18
2023-03-29T10:14:33.253Z,86.42
2023-03-29T10:17:39.305Z,86.57
2023-03-29T10:20:41.871Z,85.96
2023-03-29T10:23:44.882Z,85.88
2023-03-29T10:26:49.315Z,86.21
2023-03-29T10:29:51.960Z,86.36
2023-03-29T10:32:57.844Z,85.90
2023-03-29T10:36:00.999Z,86.97
2023-03-29T10:39:05.991Z,86.19
2023-03-29T10:42:11.508Z,86.62
2023-03-29T10:45:20.331Z,87.14
2023-03-29T10:48:25.941Z,87.15
2023-03-29T10:51:30.111Z,87.45
2023-03-29T10:54:32.675Z,86.44
2023-03-29T10:57:39.981Z,86.94
2023-03-29T11:00:44.447Z,87.26
2023-03-29T11:04:08.568Z,86.63
2023-03-29T11:07:23.286Z,86.24
2023-03-29T11:10:32.768Z,86.71
2023-03-29T11:13:39.498Z,86.39
2023-03-29T11:16:44.605Z,86.40
2023-03-29T11:19:56.420Z,85.51
2023-03-29T11:23:03.783Z,85.86
2023-03-29T11:26:11.210Z,84.67
2023-03-29T11:29:16.098Z,84.61
2023-03-29T11:32:21.520Z,85.05
2023-03-29T11:35:31.271Z,84.99
2023-03-29T11:38:36.103Z,84.87
2023-03-29T11:41:39.459Z,84.59
2023-03-29T11:44:43.813Z,85.21
2023-03-29T11:47:46.599Z,84.81
2023-03-29T11:50:51.710Z,85.25
2023-03-29T11:53:57.616Z,84.97
2023-03-29T11:57:02.869Z,84.83
2023-03-29T12:00:08.707Z,84.56
2023-03-29T12:03:13.814Z,84.98
2023-03-29T12:06:18.440Z,84.36
2023-03-29T12:09:26.512Z,84.12
2023-03-29T12:12:30.518Z,84.24
2023-03-29T12:15:36.399Z,83.67
2023-03-29T12:18:40.865Z,83.46
2023-03-29T12:21:43.429Z,83.30
2023-03-29T12:24:46.158Z,83.44
2023-03-29T12:27:53.755Z,82.93
2023-03-29T12:31:00.798Z,83.39
2023-03-29T12:34:34.967Z,82.85
2023-03-29T12:37:42.341Z,83.29
2023-03-29T12:40:46.041Z,83.35
2023-03-29T12:43:48.641Z,82.91
2023-03-29T12:46:54.369Z,82.51
2023-03-29T12:49:57.536Z,82.48
2023-03-29T12:53:04.419Z,82.54
2023-03-29T12:56:13.346Z,82.20
2023-03-29T12:59:26.958Z,81.80
2023-03-29T13:02:39.188Z,82.03
2023-03-29T13:05:41.964Z,81.43
2023-03-29T13:08:44.916Z,80.90
2023-03-29T13:11:52.830Z,80.96
2023-03-29T13:14:56.570Z,80.49
2023-03-29T13:18:04.895Z,79.95
2023-03-29T13:21:13.274Z,80.15
2023-03-29T13:24:26.439Z,79.63
2023-03-29T13:27:34.132Z,79.17
2023-03-29T13:30:44.119Z,79.42
2023-03-29T13:33:53.069Z,78.90
2023-03-29T13:37:00.759Z,79.16
2023-03-29T13:40:05.237Z,79.03
2023-03-29T13:43:10.284Z,79.67
2023-03-29T13:46:24.007Z,79.02
2023-03-29T13:49:28.799Z,79.11
2023-03-29T13:52:32.454Z,79.18
2023-03-29T13:55:38.488Z,78.66
2023-03-29T13:58:43.821Z,78.78
2023-03-29T14:01:50.411Z,78.46
2023-03-29T14:04:54.369Z,77.30
2023-03-29T14:07:56.980Z,77.93
2023-03-29T14:11:01.717Z,77.63
2023-03-29T14:14:05.738Z,77.63
2023-03-29T14:17:08.416Z,77.57
2023-03-29T14:20:16.571Z,77.21
2023-03-29T14:23:21.111Z,76.88
2023-03-29T14:26:24.277Z,77.34
2023-03-29T14:29:31.624Z,77.15
2023-03-29T14:32:34.039Z,76.83
2023-03-29T14:35:38.137Z,76.98
2023-03-29T14:38:40.976Z,76.38
2023-03-29T14:41:47.016Z,76.37
2023-03-29T14:44:49.954Z,76.88
2023-03-29T14:47:52.888Z,77.04
2023-03-29T14:50:56.821Z,75.97
2023-03-29T14:53:59.513Z,75.92
2023-03-29T14:57:06.489Z,75.91
2023-03-29T15:00:19.792Z,75.96
2023-03-29T15:03:26.064Z,75.19
2023-03-29T15:06:30.161Z,75.36
2023-03-29T15:09:34.182Z,74.94
2023-03-29T15:12:36.763Z,75.22
2023-03-29T15:15:39.431Z,74.58
2023-03-29T15:18:42.310Z,75.13
2023-03-29T15:21:47.756Z,74.72
2023-03-29T15:24:50.759Z,75.45
2023-03-29T15:27:56.182Z,75.74
2023-03-29T15:31:07.932Z,75.23
2023-03-29T15:34:12.435Z,75.43
2023-03-29T15:37:16.625Z,75.81
2023-03-29T15:40:20.145Z,76.30
2023-03-29T15:43:23.505Z,75.81
2023-03-29T15:46:26.166Z,76.25
2023-03-29T15:49:28.900Z,76.81
2023-03-29T15:52:32.773Z,76.36
2023-03-29T15:55:35.301Z,76.71
2023-03-29T15:58:37.836Z,76.75
2023-03-29T16:01:41.652Z,77.02
2023-03-29T16:04:44.344Z,77.14
2023-03-29T16:07:48.292Z,77.15
2023-03-29T16:10:50.856Z,77.21
2023-03-29T16:13:53.492Z,77.04
2023-03-29T16:16:58.831Z,76.67
2023-03-29T16:20:01.596Z,76.71
2023-03-29T16:23:09.255Z,77.30
2023-03-29T16:26:12.709Z,76.81
2023-03-29T16:29:17.316Z,76.76
2023-03-29T16:32:20.217Z,77.26
2023-03-29T16:35:25.830Z,77.08
2023-03-29T16:38:29.700Z,76.79
2023-03-29T16:41:32.552Z,77.36
2023-03-29T16:44:35.227Z,77.57
2023-03-29T16:47:39.307Z,77.24
2023-03-29T16:50:42.016Z,77.13
2023-03-29T16:53:47.656Z,77.08
2023-03-29T16:56:50.617Z,78.03
2023-03-29T16:59:53.180Z,77.29
2023-03-29T17:02:56.013Z,77.84
2023-03-29T17:05:59.166Z,77.87
2023-03-29T17:09:03.240Z,78.25
2023-03-29T17:12:05.823Z,78.03
2023-03-29T17:15:09.153Z,78.22
2023-03-29T17:18:12.130Z,78.35
2023-03-29T17:21:14.796Z,79.10
2023-03-29T17:24:18.723Z,79.11
2023-03-29T17:27:21.580Z,78.76
2023-03-29T17:30:24.108Z,78.82
2023-03-29T17:33:26.790Z,78.92
2023-03-29T17:36:33.647Z,79.92
2023-03-29T17:39:37.797Z,79.29
2023-03-29T17:42:40.557Z,79.15
2023-03-29T17:45:43.096Z,79.67
2023-03-29T17:48:46.933Z,80.06
2023-03-29T17:51:49.469Z,80.03
2023-03-29T17:54:53.332Z,80.59
2023-03-29T17:57:56.289Z,80.81
2023-03-29T18:00:58.868Z,80.96
2023-03-29T18:04:01.582Z,81.22
2023-03-29T18:07:04.176Z,81.59
2023-03-29T18:10:09.158Z,81.50
2023-03-29T18:13:13.839Z,81.78
2023-03-29T18:16:16.449Z,81.54
2023-03-29T18:19:18.989Z,81.84
2023-03-29T18:22:21.603Z,81.90
2023-03-29T18:25:25.573Z,82.54
2023-03-29T18:28:28.150Z,81.84
2023-03-29T18:31:31.031Z,82.31
2023-03-29T18:34:34.254Z,82.54
2023-03-29T18:37:37.018Z,83.08
2023-03-29T18:40:40.911Z,82.68
2023-03-29T18:43:44.145Z,83.27
2023-03-29T18:46:47.960Z,83.48
2023-03-29T18:49:50.475Z,83.75
2023-03-29T18:52:53.002Z,83.90
2023-03-29T18:55:58.295Z,83.27
2023-03-29T18:59:05.026Z,83.74
2023-03-29T19:02:07.727Z,84.14
2023-03-29T19:05:10.738Z,84.36
2023-03-29T19:08:13.303Z,84.10
2023-03-29T19:11:17.181Z,84.29
2023-03-29T19:14:23.443Z,84.37
2023-03-29T19:17:27.235Z,84.19
2023-03-29T19:20:29.955Z,84.21
2023-03-29T19:23:32.539Z,84.70
2023-03-29T19:26:36.487Z,84.57
2023-03-29T19:29:39.105Z,84.74
2023-03-29T19:32:41.770Z,84.30
2023-03-29T19:35:44.624Z,84.67
2023-03-29T19:38:47.220Z,85.04
2023-03-29T19:41:51.293Z,84.71
2023-03-29T19:44:53.861Z,84.55
2023-03-29T19:47:56.561Z,84.78
2023-03-29T19:51:01.837Z,84.73
2023-03-29T19:54:06.512Z,84.36
2023-03-29T19:57:10.510Z,84.41
2023-03-29T20:00:14.936Z,84.77
2023-03-29T20:03:17.759Z,83.77
2023-03-29T20:06:20.883Z,84.05
2023-03-29T20:09:23.444Z,84.03
2023-03-29T20:12:27.434Z,84.25
2023-03-29T20:15:30.034Z,84.02
2023-03-29T20:18:32.629Z,83.53
2023-03-29T20:21:37.124Z,83.00
2023-03-29T20:24:39.643Z,82.91
2023-03-29T20:27:43.692Z,83.14
2023-03-29T20:30:50.966Z,82.61
2023-03-29T20:33:53.703Z,83.35
2023-03-29T20:37:00.589Z,82.65
2023-03-29T20:40:05.234Z,83.34
2023-03-29T20:43:13.000Z,82.88
2023-03-29T20:46:18.155Z,83.06
2023-03-29T20:49:26.158Z,83.38
2023-03-29T20:52:28.743Z,82.91
2023-03-29T20:55:33.022Z,82.72
2023-03-29T20:58:41.789Z,83.07
2023-03-29T21:01:44.387Z,82.52
2023-03-29T21:04:50.447Z,82.62
2023-03-29T21:07:54.497Z,82.36
2023-03-29T21:10:57.176Z,82.81
2023-03-29T21:14:01.284Z,82.33
2023-03-29T21:17:03.895Z,81.60
2023-03-29T21:20:09.872Z,82.10
2023-03-29T21:23:14.426Z,81.79
2023-03-29T21:26:16.980Z,81.52
2023-03-29T21:29:20.900Z,81.37
2023-03-29T21:32:23.486Z,80.85
2023-03-29T21:35:26.084Z,80.76
2023-03-29T21:38:28.724Z,80.48
2023-03-29T21:41:31.357Z,80.10
2023-03-29T21:44:35.241Z,80.10
2023-03-29T21:47:37.828Z,79.10
2023-03-29T21:50:40.440Z,78.85
2023-03-29T21:53:43.036Z,79.19
2023-03-29T21:56:47.620Z,78.27
2023-03-29T21:59:51.575Z,77.50
2023-03-29T22:02:54.218Z,76.32
2023-03-29T22:05:58.144Z,75.88
2023-03-29T22:09:00.722Z,74.43
2023-03-29T22:12:03.381Z,74.63
2023-03-29T22:15:08.483Z,73.77
2023-03-29T22:18:12.383Z,73.10
2023-03-29T22:21:16.065Z,71.97
2023-03-29T22:24:19.449Z,72.85
2023-03-29T22:27:22.732Z,71.15
2023-03-29T22:30:27.161Z,72.04
2023-03-29T22:33:29.719Z,71.04
2023-03-29T22:36:32.368Z,70.80
2023-03-29T22:39:35.561Z,70.50
2023-03-29T22:42:38.087Z,70.68
2023-03-29T22:45:42.009Z,70.30
2023-03-29T22:48:44.673Z,70.35
2023-03-29T22:51:47.241Z,70.71
2023-03-29T22:54:49.783Z,69.62
2023-03-29T22:57:52.612Z,69.23
2023-03-29T23:00:56.870Z,69.43
2023-03-29T23:03:59.438Z,69.50
2023-03-29T23:07:02.217Z,69.75
2023-03-29T23:10:06.388Z,69.08
2023-03-29T23:13:09.450Z,68.68
2023-03-29T23:16:13.382Z,68.81
2023-03-29T23:19:16.052Z,68.40
2023-03-29T23:22:18.629Z,68.50
2023-03-29T23:25:21.207Z,68.10
2023-03-29T23:28:24.856Z,67.92
2023-03-29T23:31:28.765Z,68.36
2023-03-29T23:34:31.304Z,67.69
2023-03-29T23:37:33.917Z,67.37
2023-03-29T23:40:36.451Z,66.72
2023-03-29T23:43:40.356Z,65.91
2023-03-29T23:46:44.368Z,65.54
2023-03-29T23:49:47.735Z,65.63
2023-03-29T23:52:51.403Z,64.95
2023-03-29T23:55:54.053Z,64.55
2023-03-29T23:58:56.649Z,63.80
